Terminal Aerodrome Forecast
Issued by NWS

Home | Current Version | Previous Version | Text Only | Print | Product List | Glossary On
Versions: 1 2 3 4 5 6 7 8 9 10 11 12 13 14 15 16 17
514
FTUS43 KLSX 241737
TAFCPS
TAF
KCPS 241737Z 2418/2518 16006KT P6SM SCT050
     FM250100 VRB03KT P6SM SCT250
      TEMPO 2509/2513 5SM BR
     FM251300 19006KT P6SM SCT040 BKN080=

USA.gov is the U.S. government's official web portal to all federal, state and local government web resources and services.